KMWL/MWL METAR and TAF weather

Enter ICAO airport designator
Station Type Date Time Source
KMWL METAR 2019/08/17 10:53 UTC NOAA

KMWL 171053Z AUTO 15009KT 10SM CLR 26/22 A2985 RMK AO2 SLP091 T02610217


Station Type Date Time Source
KMWL Decoded METAR 2019/08/17 10:53 UTC NOAA

Station name not available
Aug 17, 2019 - 06:53 AM EDT / 2019.08.17 1053 UTC
Wind: from the SSE (150 degrees) at 10 MPH (9 KT):0
Visibility: 10 mile(s):0
Sky conditions: clear
Temperature: 79.0 F (26.1 C)
Dew Point: 71.1 F (21.7 C)
Relative Humidity: 76%
Pressure (altimeter): 29.85 in. Hg (1010 hPa)
ob: KMWL 171053Z AUTO 15009KT 10SM CLR 26/22 A2985 RMK AO2 SLP091 T02610217
cycle: 11

Station Type Date Time Source
KMWL TAF UTC NOAA

Error!

Example: see airport list